sensor_id;sensor_type;location;lat;lon;timestamp;pressure;altitude;pressure_sealevel;temperature;humidity
60258;BME280;46115;44.484;11.314;2023-04-08T00:03:26;100247.94;;;11.98;60.41
60258;BME280;46115;44.484;11.314;2023-04-08T00:07:28;100249.50;;;11.55;61.11
60258;BME280;46115;44.484;11.314;2023-04-08T00:11:31;100256.66;;;11.69;62.59
60258;BME280;46115;44.484;11.314;2023-04-08T00:15:35;100249.13;;;11.77;63.97
60258;BME280;46115;44.484;11.314;2023-04-08T00:19:37;100247.38;;;11.62;64.19
60258;BME280;46115;44.484;11.314;2023-04-08T00:23:39;100257.72;;;11.50;65.02
60258;BME280;46115;44.484;11.314;2023-04-08T00:27:42;100271.97;;;12.25;64.02
60258;BME280;46115;44.484;11.314;2023-04-08T00:31:45;100254.13;;;11.83;65.10
60258;BME280;46115;44.484;11.314;2023-04-08T00:35:48;100256.22;;;11.76;65.22
60258;BME280;46115;44.484;11.314;2023-04-08T00:39:51;100265.00;;;12.08;64.21
60258;BME280;46115;44.484;11.314;2023-04-08T00:43:54;100258.47;;;11.68;65.62
60258;BME280;46115;44.484;11.314;2023-04-08T00:47:58;100262.25;;;11.80;64.43
60258;BME280;46115;44.484;11.314;2023-04-08T00:52:00;100268.50;;;12.09;63.82
60258;BME280;46115;44.484;11.314;2023-04-08T00:56:02;100264.28;;;11.91;63.72
60258;BME280;46115;44.484;11.314;2023-04-08T01:00:06;100265.34;;;12.02;63.55
60258;BME280;46115;44.484;11.314;2023-04-08T01:04:16;100272.09;;;11.76;64.43
60258;BME280;46115;44.484;11.314;2023-04-08T01:08:24;100263.81;;;11.98;63.27
60258;BME280;46115;44.484;11.314;2023-04-08T01:12:29;100263.56;;;11.71;64.12
60258;BME280;46115;44.484;11.314;2023-04-08T01:16:33;100268.09;;;12.01;63.52
60258;BME280;46115;44.484;11.314;2023-04-08T01:20:38;100265.66;;;11.82;64.57
60258;BME280;46115;44.484;11.314;2023-04-08T01:24:43;100265.22;;;11.27;65.72
60258;BME280;46115;44.484;11.314;2023-04-08T01:28:49;100258.56;;;11.51;65.52
60258;BME280;46115;44.484;11.314;2023-04-08T01:32:54;100260.34;;;11.19;66.08
60258;BME280;46115;44.484;11.314;2023-04-08T01:36:57;100257.81;;;11.49;65.70
60258;BME280;46115;44.484;11.314;2023-04-08T01:40:59;100260.94;;;11.71;64.31
60258;BME280;46115;44.484;11.314;2023-04-08T01:45:06;100267.00;;;11.26;65.46
60258;BME280;46115;44.484;11.314;2023-04-08T01:49:10;100258.31;;;11.24;66.49
60258;BME280;46115;44.484;11.314;2023-04-08T01:53:13;100270.88;;;11.03;66.46
60258;BME280;46115;44.484;11.314;2023-04-08T01:57:16;100267.78;;;11.12;66.32
60258;BME280;46115;44.484;11.314;2023-04-08T02:01:22;100263.16;;;11.16;66.16
60258;BME280;46115;44.484;11.314;2023-04-08T02:05:27;100260.81;;;10.94;67.17
60258;BME280;46115;44.484;11.314;2023-04-08T02:09:29;100268.31;;;11.02;67.21
60258;BME280;46115;44.484;11.314;2023-04-08T02:13:31;100273.00;;;10.81;67.28
60258;BME280;46115;44.484;11.314;2023-04-08T02:17:42;100264.63;;;10.55;67.26
60258;BME280;46115;44.484;11.314;2023-04-08T02:21:47;100260.34;;;10.36;68.42
60258;BME280;46115;44.484;11.314;2023-04-08T02:25:52;100259.47;;;9.83;69.85
60258;BME280;46115;44.484;11.314;2023-04-08T02:30:02;100258.44;;;9.86;70.00
60258;BME280;46115;44.484;11.314;2023-04-08T02:34:07;100250.59;;;10.20;68.98
60258;BME280;46115;44.484;11.314;2023-04-08T02:38:10;100253.06;;;10.23;68.46
60258;BME280;46115;44.484;11.314;2023-04-08T02:42:13;100249.06;;;9.97;70.13
60258;BME280;46115;44.484;11.314;2023-04-08T02:46:15;100251.03;;;10.28;68.39
60258;BME280;46115;44.484;11.314;2023-04-08T02:50:19;100243.56;;;9.30;71.34
60258;BME280;46115;44.484;11.314;2023-04-08T02:54:21;100249.97;;;9.24;71.56
60258;BME280;46115;44.484;11.314;2023-04-08T02:58:24;100237.88;;;9.39;71.37
60258;BME280;46115;44.484;11.314;2023-04-08T03:02:27;100238.16;;;9.14;72.34
60258;BME280;46115;44.484;11.314;2023-04-08T03:06:30;100250.91;;;9.42;70.72
60258;BME280;46115;44.484;11.314;2023-04-08T03:10:33;100270.69;;;8.94;72.65
60258;BME280;46115;44.484;11.314;2023-04-08T03:14:35;100268.38;;;9.26;71.71
60258;BME280;46115;44.484;11.314;2023-04-08T03:18:37;100271.78;;;9.47;71.29
60258;BME280;46115;44.484;11.314;2023-04-08T03:22:41;100277.25;;;9.61;71.21
60258;BME280;46115;44.484;11.314;2023-04-08T03:26:43;100283.63;;;9.93;69.33
60258;BME280;46115;44.484;11.314;2023-04-08T03:30:45;100289.66;;;9.78;70.50
60258;BME280;46115;44.484;11.314;2023-04-08T03:34:48;100295.09;;;9.75;70.89
60258;BME280;46115;44.484;11.314;2023-04-08T03:38:52;100286.31;;;9.74;69.95
60258;BME280;46115;44.484;11.314;2023-04-08T03:42:55;100286.09;;;9.79;70.60
60258;BME280;46115;44.484;11.314;2023-04-08T03:46:57;100294.09;;;9.58;71.06
60258;BME280;46115;44.484;11.314;2023-04-08T03:50:59;100275.69;;;9.76;69.60
60258;BME280;46115;44.484;11.314;2023-04-08T03:55:03;100290.91;;;10.05;68.52
60258;BME280;46115;44.484;11.314;2023-04-08T03:59:05;100299.59;;;9.16;71.72
60258;BME280;46115;44.484;11.314;2023-04-08T04:03:08;100301.56;;;9.67;70.07
60258;BME280;46115;44.484;11.314;2023-04-08T04:07:12;100303.47;;;9.83;68.68
60258;BME280;46115;44.484;11.314;2023-04-08T04:11:16;100311.88;;;9.91;68.44
60258;BME280;46115;44.484;11.314;2023-04-08T04:15:19;100305.91;;;9.87;69.40
60258;BME280;46115;44.484;11.314;2023-04-08T04:19:21;100309.13;;;10.11;68.45
60258;BME280;46115;44.484;11.314;2023-04-08T04:23:23;100303.41;;;10.55;67.13
60258;BME280;46115;44.484;11.314;2023-04-08T04:27:27;100309.69;;;10.18;68.28
60258;BME280;46115;44.484;11.314;2023-04-08T04:31:29;100315.78;;;10.01;69.62
60258;BME280;46115;44.484;11.314;2023-04-08T04:35:32;100315.47;;;10.60;67.74
60258;BME280;46115;44.484;11.314;2023-04-08T04:39:35;100304.88;;;10.60;67.44
60258;BME280;46115;44.484;11.314;2023-04-08T04:43:38;100306.81;;;10.40;68.11
60258;BME280;46115;44.484;11.314;2023-04-08T04:47:41;100315.09;;;10.51;68.13
60258;BME280;46115;44.484;11.314;2023-04-08T04:51:43;100317.41;;;10.40;68.30
60258;BME280;46115;44.484;11.314;2023-04-08T04:55:45;100321.63;;;10.08;70.40
60258;BME280;46115;44.484;11.314;2023-04-08T04:59:49;100316.03;;;10.50;68.36
60258;BME280;46115;44.484;11.314;2023-04-08T05:03:51;100324.31;;;10.77;67.88
60258;BME280;46115;44.484;11.314;2023-04-08T05:07:53;100321.28;;;10.84;67.24
60258;BME280;46115;44.484;11.314;2023-04-08T05:11:56;100325.47;;;10.88;67.86
60258;BME280;46115;44.484;11.314;2023-04-08T05:16:00;100325.22;;;10.93;67.63
60258;BME280;46115;44.484;11.314;2023-04-08T05:20:02;100330.06;;;10.68;68.03
60258;BME280;46115;44.484;11.314;2023-04-08T05:24:05;100331.53;;;10.90;66.96
60258;BME280;46115;44.484;11.314;2023-04-08T05:28:08;100326.97;;;11.10;66.61
60258;BME280;46115;44.484;11.314;2023-04-08T05:32:12;100334.09;;;10.92;67.62
60258;BME280;46115;44.484;11.314;2023-04-08T05:36:14;100333.06;;;10.94;68.21
60258;BME280;46115;44.484;11.314;2023-04-08T05:40:16;100335.53;;;10.47;68.77
60258;BME280;46115;44.484;11.314;2023-04-08T05:44:19;100345.72;;;11.05;67.44
60258;BME280;46115;44.484;11.314;2023-04-08T05:48:22;100355.78;;;11.32;67.23
60258;BME280;46115;44.484;11.314;2023-04-08T05:52:25;100358.13;;;10.87;68.23
60258;BME280;46115;44.484;11.314;2023-04-08T05:56:27;100364.91;;;11.26;66.95
60258;BME280;46115;44.484;11.314;2023-04-08T06:00:32;100373.25;;;11.18;67.30
60258;BME280;46115;44.484;11.314;2023-04-08T06:04:36;100370.38;;;11.39;67.89
60258;BME280;46115;44.484;11.314;2023-04-08T06:08:38;100369.16;;;11.46;66.73
60258;BME280;46115;44.484;11.314;2023-04-08T06:12:41;100381.56;;;11.28;67.32
60258;BME280;46115;44.484;11.314;2023-04-08T06:16:43;100380.38;;;11.34;67.46
60258;BME280;46115;44.484;11.314;2023-04-08T06:20:47;100374.28;;;11.49;67.06
60258;BME280;46115;44.484;11.314;2023-04-08T06:24:49;100370.94;;;11.61;67.53
60258;BME280;46115;44.484;11.314;2023-04-08T06:28:52;100363.69;;;11.65;66.13
60258;BME280;46115;44.484;11.314;2023-04-08T06:32:54;100384.94;;;11.14;68.29
60258;BME280;46115;44.484;11.314;2023-04-08T06:36:58;100385.13;;;11.60;66.86
60258;BME280;46115;44.484;11.314;2023-04-08T06:41:03;100379.66;;;11.47;67.61
60258;BME280;46115;44.484;11.314;2023-04-08T06:45:07;100393.41;;;11.21;68.05
60258;BME280;46115;44.484;11.314;2023-04-08T06:49:10;100389.75;;;11.72;67.36
60258;BME280;46115;44.484;11.314;2023-04-08T06:53:15;100386.31;;;11.21;68.81
60258;BME280;46115;44.484;11.314;2023-04-08T06:57:17;100398.75;;;12.01;67.30
60258;BME280;46115;44.484;11.314;2023-04-08T07:01:19;100405.44;;;11.93;66.26
60258;BME280;46115;44.484;11.314;2023-04-08T07:05:22;100400.16;;;11.75;66.89
60258;BME280;46115;44.484;11.314;2023-04-08T07:09:25;100405.91;;;11.35;68.22
60258;BME280;46115;44.484;11.314;2023-04-08T07:13:28;100400.31;;;12.21;65.88
60258;BME280;46115;44.484;11.314;2023-04-08T07:17:30;100414.66;;;12.17;65.66
60258;BME280;46115;44.484;11.314;2023-04-08T07:21:33;100409.19;;;12.04;66.50
60258;BME280;46115;44.484;11.314;2023-04-08T07:25:37;100376.81;;;11.83;66.58
60258;BME280;46115;44.484;11.314;2023-04-08T07:29:39;100411.75;;;12.06;66.53
60258;BME280;46115;44.484;11.314;2023-04-08T07:33:42;100400.88;;;12.26;65.66
60258;BME280;46115;44.484;11.314;2023-04-08T07:37:45;100413.88;;;11.99;67.39
60258;BME280;46115;44.484;11.314;2023-04-08T07:41:48;100412.03;;;12.47;65.40
60258;BME280;46115;44.484;11.314;2023-04-08T07:45:51;100421.00;;;12.14;66.27
60258;BME280;46115;44.484;11.314;2023-04-08T07:49:53;100417.59;;;12.42;65.15
60258;BME280;46115;44.484;11.314;2023-04-08T07:53:56;100416.94;;;12.39;65.99
60258;BME280;46115;44.484;11.314;2023-04-08T07:58:00;100418.28;;;12.62;65.29
60258;BME280;46115;44.484;11.314;2023-04-08T08:02:02;100414.44;;;12.81;63.91
60258;BME280;46115;44.484;11.314;2023-04-08T08:06:05;100416.84;;;13.30;63.49
60258;BME280;46115;44.484;11.314;2023-04-08T08:10:08;100420.59;;;12.82;64.66
60258;BME280;46115;44.484;11.314;2023-04-08T08:14:13;100429.56;;;13.39;63.47
60258;BME280;46115;44.484;11.314;2023-04-08T08:18:15;100428.50;;;13.85;62.33
60258;BME280;46115;44.484;11.314;2023-04-08T08:22:18;100427.94;;;13.23;63.19
60258;BME280;46115;44.484;11.314;2023-04-08T08:26:20;100425.00;;;13.70;62.91
60258;BME280;46115;44.484;11.314;2023-04-08T08:30:24;100430.31;;;13.70;63.17
60258;BME280;46115;44.484;11.314;2023-04-08T08:34:27;100428.81;;;14.62;61.32
60258;BME280;46115;44.484;11.314;2023-04-08T08:38:30;100434.44;;;15.10;60.37
60258;BME280;46115;44.484;11.314;2023-04-08T08:42:32;100438.41;;;14.65;60.93
60258;BME280;46115;44.484;11.314;2023-04-08T08:46:36;100426.69;;;15.33;59.90
60258;BME280;46115;44.484;11.314;2023-04-08T08:50:43;100437.88;;;16.25;57.38
60258;BME280;46115;44.484;11.314;2023-04-08T08:54:46;100440.97;;;16.56;55.83
60258;BME280;46115;44.484;11.314;2023-04-08T08:58:48;100433.72;;;16.21;56.16
60258;BME280;46115;44.484;11.314;2023-04-08T09:02:52;100434.28;;;16.74;55.23
60258;BME280;46115;44.484;11.314;2023-04-08T09:07:08;100446.31;;;17.94;52.88
60258;BME280;46115;44.484;11.314;2023-04-08T09:11:13;100441.88;;;18.27;51.42
60258;BME280;46115;44.484;11.314;2023-04-08T09:15:16;100447.28;;;17.82;51.91
60258;BME280;46115;44.484;11.314;2023-04-08T09:19:20;100445.22;;;17.74;51.17
60258;BME280;46115;44.484;11.314;2023-04-08T09:23:22;100442.66;;;18.06;50.49
60258;BME280;46115;44.484;11.314;2023-04-08T09:27:32;100438.38;;;18.15;50.89
60258;BME280;46115;44.484;11.314;2023-04-08T09:31:36;100442.25;;;18.22;50.64
60258;BME280;46115;44.484;11.314;2023-04-08T09:35:43;100432.66;;;18.20;49.60
60258;BME280;46115;44.484;11.314;2023-04-08T09:39:46;100447.72;;;17.65;52.63
60258;BME280;46115;44.484;11.314;2023-04-08T09:43:50;100436.22;;;17.98;50.90
60258;BME280;46115;44.484;11.314;2023-04-08T09:47:56;100445.53;;;17.36;51.91
60258;BME280;46115;44.484;11.314;2023-04-08T09:52:06;100444.09;;;17.99;50.61
60258;BME280;46115;44.484;11.314;2023-04-08T09:56:10;100447.16;;;17.84;50.99
60258;BME280;46115;44.484;11.314;2023-04-08T10:00:15;100448.75;;;17.86;50.49
60258;BME280;46115;44.484;11.314;2023-04-08T10:04:19;100453.69;;;17.57;50.20
60258;BME280;46115;44.484;11.314;2023-04-08T10:08:24;100450.22;;;17.22;50.79
60258;BME280;46115;44.484;11.314;2023-04-08T10:12:27;100427.72;;;16.67;51.59
60258;BME280;46115;44.484;11.314;2023-04-08T10:16:29;100444.66;;;16.42;52.78
60258;BME280;46115;44.484;11.314;2023-04-08T10:20:42;100449.06;;;16.67;52.15
60258;BME280;46115;44.484;11.314;2023-04-08T10:25:27;100440.13;;;16.79;50.95
60258;BME280;46115;44.484;11.314;2023-04-08T10:29:33;100442.66;;;16.69;51.85
60258;BME280;46115;44.484;11.314;2023-04-08T10:33:35;100433.63;;;16.46;52.47
60258;BME280;46115;44.484;11.314;2023-04-08T10:37:38;100434.28;;;16.74;52.76
60258;BME280;46115;44.484;11.314;2023-04-08T10:41:42;100430.88;;;16.72;53.69
60258;BME280;46115;44.484;11.314;2023-04-08T10:45:44;100427.00;;;17.11;51.38
60258;BME280;46115;44.484;11.314;2023-04-08T10:49:51;100429.25;;;16.93;51.77
60258;BME280;46115;44.484;11.314;2023-04-08T10:53:53;100429.38;;;16.92;50.40
60258;BME280;46115;44.484;11.314;2023-04-08T10:58:04;100426.22;;;16.39;50.17
60258;BME280;46115;44.484;11.314;2023-04-08T11:02:12;100423.59;;;16.50;50.95
60258;BME280;46115;44.484;11.314;2023-04-08T11:06:15;100420.63;;;15.69;51.50
60258;BME280;46115;44.484;11.314;2023-04-08T11:10:17;100405.69;;;16.15;50.80
60258;BME280;46115;44.484;11.314;2023-04-08T11:14:22;100397.28;;;15.34;50.67
60258;BME280;46115;44.484;11.314;2023-04-08T11:18:25;100395.09;;;16.50;51.05
60258;BME280;46115;44.484;11.314;2023-04-08T11:22:27;100397.31;;;16.92;50.86
60258;BME280;46115;44.484;11.314;2023-04-08T11:26:31;100387.50;;;16.92;49.96
60258;BME280;46115;44.484;11.314;2023-04-08T11:30:37;100382.59;;;16.51;50.84
60258;BME280;46115;44.484;11.314;2023-04-08T11:34:40;100384.69;;;16.59;51.58
60258;BME280;46115;44.484;11.314;2023-04-08T11:38:42;100374.88;;;16.59;51.19
60258;BME280;46115;44.484;11.314;2023-04-08T11:42:45;100360.44;;;16.62;49.07
60258;BME280;46115;44.484;11.314;2023-04-08T11:46:55;100379.84;;;15.92;49.41
60258;BME280;46115;44.484;11.314;2023-04-08T11:51:02;100389.28;;;16.69;49.46
60258;BME280;46115;44.484;11.314;2023-04-08T11:55:05;100379.59;;;16.08;48.34
60258;BME280;46115;44.484;11.314;2023-04-08T11:59:08;100376.19;;;16.06;48.67
60258;BME280;46115;44.484;11.314;2023-04-08T12:03:12;100374.03;;;16.11;47.30
60258;BME280;46115;44.484;11.314;2023-04-08T12:07:14;100372.38;;;15.97;48.29
60258;BME280;46115;44.484;11.314;2023-04-08T12:11:17;100360.09;;;16.31;48.26
60258;BME280;46115;44.484;11.314;2023-04-08T12:15:20;100358.50;;;16.05;46.15
60258;BME280;46115;44.484;11.314;2023-04-08T12:19:23;100345.13;;;16.52;48.29
60258;BME280;46115;44.484;11.314;2023-04-08T12:23:27;100359.94;;;16.80;48.18
60258;BME280;46115;44.484;11.314;2023-04-08T12:27:30;100352.31;;;16.63;49.10
60258;BME280;46115;44.484;11.314;2023-04-08T12:31:33;100367.22;;;16.90;48.79
60258;BME280;46115;44.484;11.314;2023-04-08T12:35:37;100353.75;;;16.80;48.65
60258;BME280;46115;44.484;11.314;2023-04-08T12:39:39;100354.44;;;16.71;52.09
60258;BME280;46115;44.484;11.314;2023-04-08T12:43:41;100369.13;;;16.52;47.32
60258;BME280;46115;44.484;11.314;2023-04-08T12:47:44;100412.19;;;15.24;48.81
60258;BME280;46115;44.484;11.314;2023-04-08T12:51:48;100413.97;;;14.04;52.95
60258;BME280;46115;44.484;11.314;2023-04-08T12:55:50;100436.19;;;13.32;57.79
60258;BME280;46115;44.484;11.314;2023-04-08T12:59:57;100381.25;;;12.44;62.81
60258;BME280;46115;44.484;11.314;2023-04-08T13:03:59;100442.16;;;11.83;66.44
60258;BME280;46115;44.484;11.314;2023-04-08T13:08:03;100435.69;;;11.38;69.55
60258;BME280;46115;44.484;11.314;2023-04-08T13:12:05;100446.84;;;11.28;70.10
60258;BME280;46115;44.484;11.314;2023-04-08T13:16:08;100452.63;;;11.18;73.34
60258;BME280;46115;44.484;11.314;2023-04-08T13:20:10;100462.66;;;11.29;71.67
60258;BME280;46115;44.484;11.314;2023-04-08T13:24:14;100434.13;;;11.51;75.72
60258;BME280;46115;44.484;11.314;2023-04-08T13:28:17;100419.56;;;11.43;80.44
60258;BME280;46115;44.484;11.314;2023-04-08T13:32:19;100400.41;;;11.55;75.15
60258;BME280;46115;44.484;11.314;2023-04-08T13:36:21;100391.19;;;11.62;74.39
60258;BME280;46115;44.484;11.314;2023-04-08T13:40:25;100385.84;;;11.79;72.19
60258;BME280;46115;44.484;11.314;2023-04-08T13:44:27;100381.47;;;12.26;75.23
60258;BME280;46115;44.484;11.314;2023-04-08T13:48:30;100376.22;;;12.40;75.73
60258;BME280;46115;44.484;11.314;2023-04-08T13:52:32;100361.53;;;12.50;74.87
60258;BME280;46115;44.484;11.314;2023-04-08T13:56:36;100355.50;;;12.76;73.52
60258;BME280;46115;44.484;11.314;2023-04-08T14:00:38;100347.25;;;12.67;72.20
60258;BME280;46115;44.484;11.314;2023-04-08T14:04:40;100361.25;;;12.99;73.14
60258;BME280;46115;44.484;11.314;2023-04-08T14:08:43;100353.00;;;12.89;74.55
60258;BME280;46115;44.484;11.314;2023-04-08T14:12:50;100327.88;;;12.95;74.98
60258;BME280;46115;44.484;11.314;2023-04-08T14:16:52;100336.66;;;13.25;75.73
60258;BME280;46115;44.484;11.314;2023-04-08T14:20:54;100329.28;;;13.15;74.75
60258;BME280;46115;44.484;11.314;2023-04-08T14:24:57;100328.28;;;13.46;73.32
60258;BME280;46115;44.484;11.314;2023-04-08T14:29:00;100330.94;;;13.17;74.32
60258;BME280;46115;44.484;11.314;2023-04-08T14:33:03;100332.47;;;13.21;71.90
60258;BME280;46115;44.484;11.314;2023-04-08T14:37:06;100336.84;;;13.22;70.20
60258;BME280;46115;44.484;11.314;2023-04-08T14:41:08;100325.88;;;13.12;69.60
60258;BME280;46115;44.484;11.314;2023-04-08T14:45:12;100324.31;;;13.24;69.67
60258;BME280;46115;44.484;11.314;2023-04-08T14:49:14;100343.59;;;13.12;67.60
60258;BME280;46115;44.484;11.314;2023-04-08T14:53:17;100331.25;;;13.27;65.85
60258;BME280;46115;44.484;11.314;2023-04-08T14:57:19;100327.53;;;13.29;63.64
60258;BME280;46115;44.484;11.314;2023-04-08T15:01:23;100332.94;;;13.42;59.97
60258;BME280;46115;44.484;11.314;2023-04-08T15:05:25;100332.28;;;13.80;61.70
60258;BME280;46115;44.484;11.314;2023-04-08T15:09:28;100334.63;;;13.98;58.97
60258;BME280;46115;44.484;11.314;2023-04-08T15:13:30;100331.91;;;14.13;57.76
60258;BME280;46115;44.484;11.314;2023-04-08T15:17:34;100337.22;;;13.86;55.70
60258;BME280;46115;44.484;11.314;2023-04-08T15:21:37;100337.66;;;14.19;56.08
60258;BME280;46115;44.484;11.314;2023-04-08T15:25:39;100342.28;;;14.30;54.24
60258;BME280;46115;44.484;11.314;2023-04-08T15:29:41;100343.69;;;14.35;56.05
60258;BME280;46115;44.484;11.314;2023-04-08T15:33:46;100340.28;;;14.33;64.54
60258;BME280;46115;44.484;11.314;2023-04-08T15:37:48;100337.88;;;14.16;60.10
60258;BME280;46115;44.484;11.314;2023-04-08T15:41:51;100345.25;;;13.98;54.85
60258;BME280;46115;44.484;11.314;2023-04-08T15:45:53;100341.13;;;14.07;53.35
60258;BME280;46115;44.484;11.314;2023-04-08T15:49:57;100339.28;;;14.49;53.59
60258;BME280;46115;44.484;11.314;2023-04-08T15:54:00;100340.66;;;14.54;51.14
60258;BME280;46115;44.484;11.314;2023-04-08T15:58:02;100293.09;;;14.10;52.70
60258;BME280;46115;44.484;11.314;2023-04-08T16:02:05;100352.94;;;14.30;50.63
60258;BME280;46115;44.484;11.314;2023-04-08T16:06:09;100349.63;;;14.26;50.39
60258;BME280;46115;44.484;11.314;2023-04-08T16:10:11;100347.31;;;14.08;52.66
60258;BME280;46115;44.484;11.314;2023-04-08T16:14:14;100344.59;;;14.49;49.98
60258;BME280;46115;44.484;11.314;2023-04-08T16:18:16;100350.66;;;14.51;48.98
60258;BME280;46115;44.484;11.314;2023-04-08T16:22:21;100353.22;;;14.52;50.17
60258;BME280;46115;44.484;11.314;2023-04-08T16:26:23;100352.97;;;14.16;49.01
60258;BME280;46115;44.484;11.314;2023-04-08T16:30:27;100355.59;;;14.03;50.16
60258;BME280;46115;44.484;11.314;2023-04-08T16:34:29;100358.09;;;14.19;50.08
60258;BME280;46115;44.484;11.314;2023-04-08T16:38:34;100366.22;;;14.03;50.52
60258;BME280;46115;44.484;11.314;2023-04-08T16:42:36;100371.38;;;13.92;54.03
60258;BME280;46115;44.484;11.314;2023-04-08T16:46:39;100374.16;;;13.76;52.21
60258;BME280;46115;44.484;11.314;2023-04-08T16:50:41;100380.06;;;14.08;56.71
60258;BME280;46115;44.484;11.314;2023-04-08T16:54:45;100385.44;;;13.80;55.13
60258;BME280;46115;44.484;11.314;2023-04-08T16:58:48;100389.50;;;13.85;54.74
60258;BME280;46115;44.484;11.314;2023-04-08T17:02:50;100387.13;;;13.95;55.69
60258;BME280;46115;44.484;11.314;2023-04-08T17:06:55;100390.03;;;13.63;62.67
60258;BME280;46115;44.484;11.314;2023-04-08T17:11:05;100367.72;;;13.52;56.53
60258;BME280;46115;44.484;11.314;2023-04-08T17:15:08;100392.66;;;13.49;57.36
60258;BME280;46115;44.484;11.314;2023-04-08T17:19:11;100390.22;;;13.60;57.30
60258;BME280;46115;44.484;11.314;2023-04-08T17:23:14;100372.31;;;12.91;59.15
60258;BME280;46115;44.484;11.314;2023-04-08T17:27:18;100398.56;;;13.26;56.21
60258;BME280;46115;44.484;11.314;2023-04-08T17:31:21;100406.44;;;13.11;59.88
60258;BME280;46115;44.484;11.314;2023-04-08T17:35:23;100410.72;;;13.00;58.56
60258;BME280;46115;44.484;11.314;2023-04-08T17:39:26;100411.94;;;12.94;60.88
60258;BME280;46115;44.484;11.314;2023-04-08T17:43:31;100397.53;;;12.38;63.70
60258;BME280;46115;44.484;11.314;2023-04-08T17:47:34;100401.72;;;12.11;65.02
60258;BME280;46115;44.484;11.314;2023-04-08T17:51:36;100425.47;;;12.44;63.51
60258;BME280;46115;44.484;11.314;2023-04-08T17:55:39;100431.22;;;12.05;65.32
60258;BME280;46115;44.484;11.314;2023-04-08T17:59:43;100404.50;;;11.94;65.26
60258;BME280;46115;44.484;11.314;2023-04-08T18:03:45;100450.91;;;12.16;65.41
60258;BME280;46115;44.484;11.314;2023-04-08T18:07:49;100445.75;;;11.98;64.00
60258;BME280;46115;44.484;11.314;2023-04-08T18:11:52;100461.91;;;12.40;59.64
60258;BME280;46115;44.484;11.314;2023-04-08T18:15:56;100461.66;;;12.29;59.73
60258;BME280;46115;44.484;11.314;2023-04-08T18:19:59;100472.94;;;12.33;62.56
60258;BME280;46115;44.484;11.314;2023-04-08T18:24:02;100472.16;;;12.46;59.33
60258;BME280;46115;44.484;11.314;2023-04-08T18:28:04;100476.06;;;12.71;56.31
60258;BME280;46115;44.484;11.314;2023-04-08T22:06:08;100641.22;;;9.25;74.78
60258;BME280;46115;44.484;11.314;2023-04-08T22:10:11;100643.63;;;9.51;73.19
60258;BME280;46115;44.484;11.314;2023-04-08T22:14:13;100616.97;;;9.37;73.09
60258;BME280;46115;44.484;11.314;2023-04-08T22:18:17;100621.53;;;9.12;73.67
60258;BME280;46115;44.484;11.314;2023-04-08T22:22:20;100640.66;;;9.38;72.52
60258;BME280;46115;44.484;11.314;2023-04-08T22:26:23;100639.69;;;9.41;72.19
60258;BME280;46115;44.484;11.314;2023-04-08T22:30:27;100635.47;;;9.35;71.66
60258;BME280;46115;44.484;11.314;2023-04-08T22:34:29;100641.34;;;9.22;72.69
60258;BME280;46115;44.484;11.314;2023-04-08T22:38:33;100642.50;;;9.15;72.55
60258;BME280;46115;44.484;11.314;2023-04-08T22:42:35;100648.50;;;9.40;72.89
60258;BME280;46115;44.484;11.314;2023-04-08T22:46:37;100640.41;;;9.23;72.74
60258;BME280;46115;44.484;11.314;2023-04-08T22:50:40;100645.56;;;9.48;71.43
60258;BME280;46115;44.484;11.314;2023-04-08T22:54:45;100639.13;;;9.75;71.43
60258;BME280;46115;44.484;11.314;2023-04-08T22:58:47;100644.41;;;9.75;70.77
60258;BME280;46115;44.484;11.314;2023-04-08T23:02:49;100649.06;;;9.68;71.23
60258;BME280;46115;44.484;11.314;2023-04-08T23:06:52;100656.63;;;9.56;71.65
60258;BME280;46115;44.484;11.314;2023-04-08T23:10:55;100652.34;;;9.53;71.57
60258;BME280;46115;44.484;11.314;2023-04-08T23:14:57;100650.44;;;9.35;71.30
60258;BME280;46115;44.484;11.314;2023-04-08T23:19:00;100654.84;;;8.46;73.67
60258;BME280;46115;44.484;11.314;2023-04-08T23:23:02;100648.69;;;8.70;73.27
60258;BME280;46115;44.484;11.314;2023-04-08T23:27:05;100653.78;;;8.96;72.61
60258;BME280;46115;44.484;11.314;2023-04-08T23:31:08;100621.28;;;8.51;73.44
60258;BME280;46115;44.484;11.314;2023-04-08T23:35:11;100663.97;;;8.60;74.13
60258;BME280;46115;44.484;11.314;2023-04-08T23:39:13;100661.56;;;8.54;74.87
60258;BME280;46115;44.484;11.314;2023-04-08T23:43:17;100657.13;;;8.06;76.18
60258;BME280;46115;44.484;11.314;2023-04-08T23:47:19;100643.41;;;8.70;73.51
60258;BME280;46115;44.484;11.314;2023-04-08T23:51:22;100657.56;;;8.67;73.96
60258;BME280;46115;44.484;11.314;2023-04-08T23:55:24;100659.66;;;8.58;74.47
60258;BME280;46115;44.484;11.314;2023-04-08T23:59:28;100653.94;;;8.70;74.09
